Date,TemperatureHighF,TemperatureAvgF,TemperatureLowF,DewpointHighF,DewpointAvgF,DewpointLowF,HumidityHigh,HumidityAvg,HumidityLow,PressureMaxIn,PressureMinIn,WindSpeedMaxMPH,WindSpeedAvgMPH,GustSpeedMaxMPH,PrecipitationSumIn
2013-8-1,109,99,89,65,52,40,45,24,11,29.50,29.42,28,10,28,0.00
2013-8-2,108,99,89,70,55,40,52,27,12,29.48,29.42,29,11,29,0.00
2013-8-3,108,99,91,68,60,43,44,29,13,29.48,29.40,23,8,23,0.00
2013-8-4,101,94,88,86,77,56,79,60,30,29.50,29.43,16,4,16,0.00
2013-8-5,100,94,91,85,82,78,82,68,51,29.52,29.44,16,6,16,0.00
2013-8-6,99,94,90,85,82,77,80,70,51,29.54,29.46,14,5,14,0.00
2013-8-7,101,94,90,84,82,74,83,68,44,29.56,29.47,15,4,15,0.00
2013-8-8,102,95,91,85,82,75,81,68,43,29.57,29.48,17,6,17,0.00
2013-8-9,102,95,91,86,84,80,81,69,53,29.54,29.44,16,6,16,0.00
2013-8-10,102,95,91,84,82,79,80,67,55,29.51,29.44,15,5,15,0.00
2013-8-11,105,96,88,82,78,58,74,59,26,29.55,29.47,16,4,16,0.00
2013-8-12,104,95,88,83,80,68,79,63,36,29.59,29.51,14,5,14,0.00
2013-8-13,104,95,88,85,81,66,80,64,34,29.56,29.47,14,4,14,0.00
2013-8-14,103,96,88,84,79,71,74,61,40,29.53,29.41,12,4,12,0.00
2013-8-15,105,96,92,85,80,70,77,61,35,29.56,29.48,12,4,12,0.00
2013-8-16,102,96,92,86,85,79,82,70,51,29.56,29.46,15,5,15,0.00
2013-8-17,102,96,91,86,85,82,81,71,60,29.56,29.49,12,5,12,0.00
2013-8-18,107,97,90,87,83,64,83,66,29,29.57,29.46,13,4,13,0.00
2013-8-19,102,96,91,86,84,79,80,68,55,29.58,29.47,13,5,13,0.00
2013-8-20,103,95,88,86,83,77,87,69,51,29.59,29.48,11,4,11,0.00
2013-8-21,101,95,89,85,82,78,78,68,52,29.56,29.46,12,4,12,0.00
2013-8-22,102,96,89,85,82,73,77,66,43,29.57,29.47,12,4,12,0.00
2013-8-23,107,97,89,84,77,62,75,54,29,29.63,29.53,14,4,14,0.00
2013-8-24,109,98,88,82,74,53,71,49,18,29.62,29.54,17,6,17,0.00
2013-8-25,101,94,86,83,78,64,76,62,32,29.61,29.52,14,5,14,0.00
2013-8-26,104,95,88,85,80,70,78,62,39,29.62,29.50,11,4,11,0.00
2013-8-27,108,98,89,75,69,59,62,42,22,29.59,29.50,22,8,22,0.00
2013-8-28,106,97,87,76,68,54,62,40,19,29.62,29.52,20,6,20,0.00
2013-8-29,99,94,88,84,80,74,75,66,59,29.66,29.56,12,4,12,0.00
2013-8-30,100,94,90,85,82,80,76,69,60,29.69,29.59,14,5,14,0.00
2013-8-31,99,94,88,85,83,80,81,71,62,29.69,29.59,13,6,13,0.00